createdAt,value
2023-02-02T00:00:21.882Z,3.40
2023-02-02T00:02:54.160Z,3.02
2023-02-02T00:05:23.723Z,3.12
2023-02-02T00:07:57.169Z,2.82
2023-02-02T00:10:26.629Z,2.85
2023-02-02T00:13:00.675Z,2.80
2023-02-02T00:15:37.241Z,2.55
2023-02-02T00:18:06.814Z,2.78
2023-02-02T00:20:38.775Z,2.90
2023-02-02T00:23:07.473Z,2.66
2023-02-02T00:25:38.651Z,2.56
2023-02-02T00:28:08.741Z,2.46
2023-02-02T00:30:43.532Z,2.39
2023-02-02T00:33:11.642Z,2.60
2023-02-02T00:35:50.781Z,2.87
2023-02-02T00:38:21.532Z,2.84
2023-02-02T00:40:51.083Z,2.72
2023-02-02T00:43:23.766Z,2.98
2023-02-02T00:46:01.330Z,3.04
2023-02-02T00:48:30.579Z,3.17
2023-02-02T00:50:59.391Z,3.09
2023-02-02T00:53:28.741Z,3.08
2023-02-02T00:56:00.126Z,3.24
2023-02-02T00:58:32.523Z,3.18
2023-02-02T01:01:13.810Z,3.04
2023-02-02T01:03:45.317Z,3.05
2023-02-02T01:06:30.048Z,3.10
2023-02-02T01:09:03.934Z,3.34
2023-02-02T01:11:34.569Z,3.29
2023-02-02T01:14:03.916Z,3.33
2023-02-02T01:16:37.903Z,3.22
2023-02-02T01:19:15.016Z,3.30
2023-02-02T01:21:48.885Z,3.58
2023-02-02T01:24:20.523Z,3.33
2023-02-02T01:26:51.593Z,3.29
2023-02-02T01:29:28.695Z,3.20
2023-02-02T01:32:01.197Z,2.99
2023-02-02T01:34:38.679Z,3.02
2023-02-02T01:37:10.731Z,3.03
2023-02-02T01:39:40.340Z,2.92
2023-02-02T01:42:17.727Z,2.97
2023-02-02T01:45:34.817Z,2.89
2023-02-02T01:48:07.112Z,3.10
2023-02-02T01:50:38.217Z,2.98
2023-02-02T01:53:08.686Z,3.07
2023-02-02T01:55:41.043Z,3.19
2023-02-02T01:58:13.315Z,3.38
2023-02-02T02:00:43.247Z,3.44
2023-02-02T02:03:19.753Z,3.56
2023-02-02T02:05:52.809Z,3.68
2023-02-02T02:08:25.990Z,3.90
2023-02-02T02:11:07.277Z,3.91
2023-02-02T02:14:00.851Z,3.83
2023-02-02T02:16:48.193Z,3.91
2023-02-02T02:20:05.500Z,3.88
2023-02-02T02:23:11.848Z,3.70
2023-02-02T02:26:15.069Z,3.74
2023-02-02T02:29:11.934Z,3.67
2023-02-02T02:32:02.788Z,3.84
2023-02-02T02:34:41.992Z,3.59
2023-02-02T02:37:13.256Z,3.73
2023-02-02T02:39:56.590Z,3.64
2023-02-02T02:42:30.463Z,3.49
2023-02-02T02:45:07.148Z,3.66
2023-02-02T02:47:43.395Z,3.57
2023-02-02T02:50:13.491Z,3.43
2023-02-02T02:52:49.385Z,3.32
2023-02-02T02:55:18.895Z,3.56
2023-02-02T02:58:02.080Z,3.47
2023-02-02T03:00:53.378Z,3.23
2023-02-02T03:03:42.594Z,3.19
2023-02-02T03:06:21.583Z,3.20
2023-02-02T03:08:57.445Z,3.09
2023-02-02T03:11:26.354Z,3.26
2023-02-02T03:13:56.641Z,3.20
2023-02-02T03:16:25.261Z,3.31
2023-02-02T03:19:11.578Z,3.20
2023-02-02T03:21:42.860Z,3.30
2023-02-02T03:24:12.377Z,3.34
2023-02-02T03:26:44.879Z,3.42
2023-02-02T03:29:16.214Z,3.35
2023-02-02T03:32:02.590Z,3.62
2023-02-02T03:34:33.457Z,3.50
2023-02-02T03:37:04.640Z,3.65
2023-02-02T03:39:41.701Z,3.88
2023-02-02T03:42:13.661Z,3.78
2023-02-02T03:44:43.039Z,3.73
2023-02-02T03:47:14.517Z,3.73
2023-02-02T03:49:54.275Z,3.71
2023-02-02T03:52:31.200Z,3.86
2023-02-02T03:55:08.346Z,3.73
2023-02-02T03:57:37.514Z,3.84
2023-02-02T04:00:08.879Z,3.78
2023-02-02T04:02:40.645Z,3.92
2023-02-02T04:05:15.670Z,3.79
2023-02-02T04:07:50.058Z,3.79
2023-02-02T04:10:22.629Z,3.84
2023-02-02T04:12:52.761Z,3.69
2023-02-02T04:15:22.238Z,3.81
2023-02-02T04:17:51.372Z,3.73
2023-02-02T04:20:24.804Z,3.61
2023-02-02T04:22:55.934Z,3.66
2023-02-02T04:25:26.684Z,3.56
2023-02-02T04:27:56.344Z,3.58
2023-02-02T04:30:34.305Z,3.46
2023-02-02T04:33:05.448Z,3.35
2023-02-02T04:35:37.890Z,3.26
2023-02-02T04:38:07.304Z,3.30
2023-02-02T04:40:39.860Z,3.28
2023-02-02T04:43:12.025Z,3.30
2023-02-02T04:45:40.677Z,3.41
2023-02-02T04:48:10.359Z,3.46
2023-02-02T04:50:45.628Z,3.57
2023-02-02T04:53:18.469Z,3.49
2023-02-02T04:55:49.499Z,3.70
2023-02-02T04:58:21.187Z,3.68
2023-02-02T05:00:54.670Z,3.57
2023-02-02T05:03:38.174Z,3.45
2023-02-02T05:06:25.262Z,3.50
2023-02-02T05:08:54.411Z,3.56
2023-02-02T05:11:24.503Z,3.66
2023-02-02T05:13:55.730Z,3.59
2023-02-02T05:16:29.028Z,3.72
2023-02-02T05:18:59.752Z,3.77
2023-02-02T05:21:30.096Z,3.87
2023-02-02T05:24:03.683Z,3.77
2023-02-02T05:26:32.770Z,3.80
2023-02-02T05:29:04.003Z,4.01
2023-02-02T05:31:35.123Z,3.92
2023-02-02T05:34:05.071Z,4.11
2023-02-02T05:36:38.840Z,4.12
2023-02-02T05:39:15.695Z,4.15
2023-02-02T05:41:44.486Z,4.01
2023-02-02T05:44:25.649Z,4.02
2023-02-02T05:46:57.078Z,4.09
2023-02-02T05:49:26.652Z,3.89
2023-02-02T05:52:03.511Z,3.96
2023-02-02T05:54:33.139Z,3.99
2023-02-02T05:57:04.182Z,3.80
2023-02-02T05:59:33.715Z,3.88
2023-02-02T06:02:02.386Z,4.02
2023-02-02T06:04:33.944Z,3.83
2023-02-02T06:07:06.275Z,3.86
2023-02-02T06:09:35.809Z,3.91
2023-02-02T06:12:09.590Z,3.97
2023-02-02T06:14:41.891Z,3.95
2023-02-02T06:17:10.548Z,3.90
2023-02-02T06:19:40.856Z,3.99
2023-02-02T06:22:20.051Z,3.95
2023-02-02T06:24:55.967Z,4.08
2023-02-02T06:27:24.774Z,3.85
2023-02-02T06:29:56.341Z,3.71
2023-02-02T06:32:25.700Z,3.82
2023-02-02T06:34:57.363Z,4.01
2023-02-02T06:37:30.799Z,3.89
2023-02-02T06:40:00.456Z,3.86
2023-02-02T06:42:30.731Z,3.72
2023-02-02T06:45:01.362Z,3.77
2023-02-02T06:47:29.969Z,3.78
2023-02-02T06:50:04.860Z,3.66
2023-02-02T06:52:35.924Z,3.64
2023-02-02T06:55:05.346Z,3.83
2023-02-02T06:57:42.423Z,3.89
2023-02-02T07:00:14.644Z,3.83
2023-02-02T07:02:49.217Z,3.92
2023-02-02T07:05:21.713Z,3.77
2023-02-02T07:07:52.275Z,3.94
2023-02-02T07:11:13.571Z,3.76
2023-02-02T07:13:21.046Z,3.77
2023-02-02T07:15:52.626Z,3.81
2023-02-02T07:18:22.956Z,3.89
2023-02-02T07:20:52.303Z,3.88
2023-02-02T07:23:30.666Z,3.94
2023-02-02T07:26:15.417Z,3.94
2023-02-02T07:28:46.933Z,4.08
2023-02-02T07:31:26.903Z,3.94
2023-02-02T07:34:19.272Z,4.03
2023-02-02T07:36:51.057Z,4.07
2023-02-02T07:39:28.892Z,4.21
2023-02-02T07:41:58.527Z,4.15
2023-02-02T07:44:37.693Z,4.29
2023-02-02T07:47:07.525Z,4.07
2023-02-02T07:49:36.661Z,4.31
2023-02-02T07:52:12.281Z,4.27
2023-02-02T07:54:41.987Z,4.59
2023-02-02T07:57:18.288Z,4.54
2023-02-02T07:59:47.392Z,4.26
2023-02-02T08:02:18.204Z,4.23
2023-02-02T08:04:48.535Z,4.41
2023-02-02T08:07:16.623Z,4.31
2023-02-02T08:09:54.151Z,4.39
2023-02-02T08:12:29.286Z,4.55
2023-02-02T08:15:00.252Z,4.27
2023-02-02T08:17:33.296Z,4.30
2023-02-02T08:20:03.909Z,4.23
2023-02-02T08:22:32.876Z,4.42
2023-02-02T08:25:03.833Z,4.33
2023-02-02T08:27:33.578Z,4.40
2023-02-02T08:30:05.266Z,4.58
2023-02-02T08:32:36.296Z,4.28
2023-02-02T08:35:15.744Z,4.29
2023-02-02T08:37:45.883Z,4.46
2023-02-02T08:40:34.931Z,4.41
2023-02-02T08:43:04.813Z,4.43
2023-02-02T08:46:04.240Z,4.40
2023-02-02T08:48:28.428Z,4.42
2023-02-02T08:51:00.051Z,4.49
2023-02-02T08:53:29.032Z,4.56
2023-02-02T08:56:19.278Z,4.57
2023-02-02T08:58:51.471Z,4.51
2023-02-02T09:01:23.383Z,4.54
2023-02-02T09:04:02.506Z,4.43
2023-02-02T09:06:37.371Z,4.61
2023-02-02T09:09:07.991Z,4.54
2023-02-02T09:11:40.182Z,4.69
2023-02-02T09:14:10.324Z,4.62
2023-02-02T09:16:40.488Z,4.48
2023-02-02T09:19:22.708Z,4.50
2023-02-02T09:21:54.968Z,4.63
2023-02-02T09:24:26.259Z,4.43
2023-02-02T09:26:57.801Z,4.41
2023-02-02T09:29:28.589Z,4.58
2023-02-02T09:31:59.832Z,4.64
2023-02-02T09:34:36.722Z,4.84
2023-02-02T09:37:07.687Z,4.79
2023-02-02T09:39:37.511Z,4.71
2023-02-02T09:42:52.465Z,4.80
2023-02-02T09:45:54.738Z,4.66
2023-02-02T09:48:32.128Z,4.74
2023-02-02T09:51:06.483Z,4.62
2023-02-02T09:53:55.988Z,4.60
2023-02-02T09:56:32.840Z,4.61
2023-02-02T09:59:19.217Z,4.61
2023-02-02T10:01:56.743Z,4.72
2023-02-02T10:04:31.344Z,4.75
2023-02-02T10:07:08.568Z,4.72
2023-02-02T10:09:46.716Z,4.92
2023-02-02T10:12:47.408Z,4.99
2023-02-02T10:15:25.812Z,5.19
2023-02-02T10:18:00.789Z,5.08
2023-02-02T10:20:47.268Z,5.14
2023-02-02T10:23:27.724Z,5.11
2023-02-02T10:25:59.149Z,5.05
2023-02-02T10:28:42.845Z,5.12
2023-02-02T10:31:23.510Z,5.31
2023-02-02T10:34:05.968Z,5.19
2023-02-02T10:36:47.816Z,5.24
2023-02-02T10:39:27.371Z,5.01
2023-02-02T10:42:08.208Z,5.07
2023-02-02T10:44:41.763Z,5.27
2023-02-02T10:47:16.556Z,5.35
2023-02-02T10:49:51.825Z,5.30
2023-02-02T10:52:34.106Z,5.38
2023-02-02T10:55:12.375Z,5.35
2023-02-02T10:57:50.613Z,5.33
2023-02-02T11:00:31.792Z,5.36
2023-02-02T11:03:07.447Z,5.36
2023-02-02T11:05:57.828Z,5.64
2023-02-02T11:08:33.163Z,5.44
2023-02-02T11:11:16.103Z,5.36
2023-02-02T11:13:51.463Z,5.35
2023-02-02T11:16:49.224Z,5.29
2023-02-02T11:19:30.275Z,5.36
2023-02-02T11:22:04.248Z,5.01
2023-02-02T11:24:42.524Z,5.08
2023-02-02T11:27:18.335Z,4.94
2023-02-02T11:29:49.921Z,4.86
2023-02-02T11:32:21.407Z,4.88
2023-02-02T11:34:52.626Z,4.91
2023-02-02T11:37:28.729Z,4.75
2023-02-02T11:40:23.533Z,4.83
2023-02-02T11:42:54.918Z,4.89
2023-02-02T11:45:34.022Z,4.78
2023-02-02T11:48:18.499Z,4.88
2023-02-02T11:50:50.992Z,4.86
2023-02-02T11:53:31.751Z,4.76
2023-02-02T11:56:06.281Z,4.96
2023-02-02T11:58:46.870Z,4.85
2023-02-02T12:01:30.876Z,4.86
2023-02-02T12:04:01.555Z,4.92
2023-02-02T12:06:38.981Z,4.75
2023-02-02T12:09:19.813Z,4.80
2023-02-02T12:12:00.085Z,5.09
2023-02-02T12:14:37.859Z,4.94
2023-02-02T12:17:30.356Z,5.15
2023-02-02T12:20:36.500Z,5.01
2023-02-02T12:23:22.306Z,5.15
2023-02-02T12:26:25.491Z,5.03
2023-02-02T12:29:19.795Z,5.16
2023-02-02T12:32:04.347Z,5.06
2023-02-02T12:34:46.346Z,5.14
2023-02-02T12:37:20.081Z,5.06
2023-02-02T12:40:04.543Z,5.31
2023-02-02T12:43:29.167Z,5.33
2023-02-02T12:46:23.449Z,5.24
2023-02-02T12:49:09.333Z,5.23
2023-02-02T12:51:53.072Z,5.11
2023-02-02T12:54:47.518Z,5.12
2023-02-02T12:57:32.320Z,5.14
2023-02-02T13:00:26.930Z,5.01
2023-02-02T13:03:36.001Z,5.07
2023-02-02T13:06:49.692Z,5.27
2023-02-02T13:09:24.006Z,4.96
2023-02-02T13:11:56.446Z,5.06
2023-02-02T13:14:29.174Z,5.00
2023-02-02T13:17:09.324Z,5.04
2023-02-02T13:19:42.632Z,5.11
2023-02-02T13:22:20.236Z,5.06
2023-02-02T13:24:55.583Z,5.24
2023-02-02T13:27:35.768Z,5.19
2023-02-02T13:30:19.863Z,5.00
2023-02-02T13:32:55.995Z,5.11
2023-02-02T13:35:32.382Z,5.12
2023-02-02T13:38:10.580Z,5.11
2023-02-02T13:40:49.370Z,5.15
2023-02-02T13:43:51.300Z,5.11
2023-02-02T13:46:41.970Z,5.03
2023-02-02T13:49:19.698Z,5.20
2023-02-02T13:52:31.191Z,5.06
2023-02-02T13:55:33.160Z,5.14
2023-02-02T13:58:32.281Z,5.11
2023-02-02T14:01:11.389Z,5.08
2023-02-02T14:03:44.133Z,4.93
2023-02-02T14:06:30.974Z,4.90
2023-02-02T14:09:04.339Z,5.02
2023-02-02T14:11:35.014Z,4.85
2023-02-02T14:14:29.409Z,4.87
2023-02-02T14:16:58.321Z,4.95
2023-02-02T14:20:06.121Z,4.76
2023-02-02T14:22:55.916Z,4.78
2023-02-02T14:26:05.180Z,4.73
2023-02-02T14:28:50.035Z,4.71
2023-02-02T14:31:29.785Z,4.65
2023-02-02T14:34:36.478Z,4.76
2023-02-02T14:37:42.050Z,4.74
2023-02-02T14:40:32.502Z,4.82
2023-02-02T14:43:30.308Z,4.80
2023-02-02T14:46:23.849Z,4.60
2023-02-02T14:49:24.095Z,4.48
2023-02-02T14:51:56.419Z,4.57
2023-02-02T14:54:32.669Z,4.49
2023-02-02T14:57:21.391Z,4.38
2023-02-02T15:00:01.323Z,4.43
2023-02-02T15:02:37.847Z,4.46
2023-02-02T15:05:46.503Z,4.59
2023-02-02T15:08:29.768Z,4.57
2023-02-02T15:11:32.654Z,4.59
2023-02-02T15:14:17.367Z,4.42
2023-02-02T15:16:47.740Z,4.47
2023-02-02T15:19:38.660Z,4.49
2023-02-02T15:22:29.845Z,4.56
2023-02-02T15:25:00.682Z,4.43
2023-02-02T15:27:30.962Z,4.52
2023-02-02T15:30:18.846Z,4.42
2023-02-02T15:32:49.388Z,4.22
2023-02-02T15:35:23.511Z,4.29
2023-02-02T15:38:04.681Z,4.43
2023-02-02T15:40:38.828Z,4.38
2023-02-02T15:43:10.029Z,4.43
2023-02-02T15:46:04.867Z,4.29
2023-02-02T15:48:40.521Z,4.41
2023-02-02T15:51:24.580Z,4.27
2023-02-02T15:53:53.589Z,4.23
2023-02-02T15:56:34.335Z,4.17
2023-02-02T15:59:06.011Z,4.02
2023-02-02T16:01:50.159Z,4.36
2023-02-02T16:04:28.978Z,4.24
2023-02-02T16:07:03.789Z,4.27
2023-02-02T16:09:45.531Z,4.21
2023-02-02T16:12:21.144Z,4.13
2023-02-02T16:15:02.692Z,4.33
2023-02-02T16:17:44.181Z,4.15
2023-02-02T16:20:21.298Z,4.12
2023-02-02T16:22:51.266Z,4.05
2023-02-02T16:25:30.697Z,4.37
2023-02-02T16:28:06.087Z,4.25
2023-02-02T16:30:38.259Z,4.43
2023-02-02T16:33:33.189Z,4.38
2023-02-02T16:36:12.561Z,4.23
2023-02-02T16:38:42.855Z,4.36
2023-02-02T16:41:19.666Z,4.14
2023-02-02T16:43:50.171Z,4.28
2023-02-02T16:47:11.220Z,4.07
2023-02-02T16:49:49.720Z,4.11
2023-02-02T16:52:26.786Z,4.24
2023-02-02T16:54:57.694Z,4.27
2023-02-02T16:57:36.831Z,4.15
2023-02-02T17:00:19.236Z,4.03
2023-02-02T17:03:07.399Z,4.08
2023-02-02T17:05:51.592Z,3.97
2023-02-02T17:08:31.843Z,4.16
2023-02-02T17:11:09.163Z,4.23
2023-02-02T17:13:46.134Z,3.99
2023-02-02T17:16:19.181Z,4.11
2023-02-02T17:18:54.309Z,3.94
2023-02-02T17:21:34.083Z,4.00
2023-02-02T17:24:08.187Z,3.97
2023-02-02T17:29:39.187Z,4.03
2023-02-02T17:32:09.782Z,4.01
2023-02-02T17:34:51.862Z,4.06
2023-02-02T17:37:32.542Z,3.99
2023-02-02T17:40:19.440Z,3.88
2023-02-02T17:43:00.165Z,3.88
2023-02-02T17:45:39.087Z,4.04
2023-02-02T17:48:17.236Z,3.98
2023-02-02T17:50:55.295Z,4.32
2023-02-02T17:53:33.576Z,4.17
2023-02-02T17:56:12.186Z,4.03
2023-02-02T17:58:42.982Z,3.91
2023-02-02T18:01:25.264Z,3.94
2023-02-02T18:03:59.343Z,4.04
2023-02-02T18:06:37.372Z,4.00
2023-02-02T18:09:19.460Z,4.06
2023-02-02T18:11:51.815Z,4.11
2023-02-02T18:14:21.673Z,4.06
2023-02-02T18:16:55.468Z,4.10
2023-02-02T18:19:28.003Z,3.80
2023-02-02T18:22:01.188Z,3.97
2023-02-02T18:24:38.600Z,3.97
2023-02-02T18:33:27.886Z,4.00
2023-02-02T18:36:01.556Z,3.85
2023-02-02T18:41:25.275Z,3.96
2023-02-02T18:44:04.758Z,3.75
2023-02-02T18:46:46.692Z,3.75
2023-02-02T18:58:40.651Z,3.89
2023-02-02T19:01:14.789Z,3.98
2023-02-02T19:03:44.685Z,3.85
2023-02-02T19:09:24.548Z,4.00
2023-02-02T19:12:03.842Z,3.85
2023-02-02T19:14:40.916Z,4.12
2023-02-02T19:17:28.246Z,3.78
2023-02-02T19:20:09.538Z,3.79
2023-02-02T19:22:45.805Z,3.76
2023-02-02T19:25:26.872Z,3.89
2023-02-02T19:27:58.702Z,4.00
2023-02-02T19:30:34.895Z,4.04
2023-02-02T19:33:08.626Z,3.73
2023-02-02T19:35:49.307Z,3.94
2023-02-02T19:38:20.731Z,3.77
2023-02-02T19:41:07.523Z,3.96
2023-02-02T19:43:50.318Z,3.88
2023-02-02T19:46:36.419Z,3.86
2023-02-02T19:49:18.432Z,3.81
2023-02-02T19:51:53.838Z,3.81
2023-02-02T19:54:46.528Z,3.82
2023-02-02T19:57:27.742Z,3.81
2023-02-02T20:00:01.389Z,3.90
2023-02-02T20:03:07.912Z,3.83
2023-02-02T20:05:44.816Z,3.81
2023-02-02T20:14:54.194Z,3.76
2023-02-02T20:20:46.860Z,3.91
2023-02-02T20:23:38.826Z,3.98
2023-02-02T20:32:18.682Z,3.93
2023-02-02T20:35:00.714Z,3.88
2023-02-02T20:43:38.889Z,3.93
2023-02-02T20:46:19.498Z,3.89
2023-02-02T20:58:04.652Z,3.83
2023-02-02T21:00:43.174Z,3.94
2023-02-02T21:03:22.331Z,3.86
2023-02-02T21:05:53.024Z,4.00
2023-02-02T21:08:23.427Z,3.96
2023-02-02T21:11:03.853Z,3.85
2023-02-02T21:13:38.757Z,3.72
2023-02-02T21:16:10.746Z,3.91
2023-02-02T21:18:51.840Z,3.82
2023-02-02T21:21:26.517Z,3.86
2023-02-02T21:23:58.287Z,3.81
2023-02-02T21:26:35.952Z,3.82
2023-02-02T21:29:09.437Z,3.75
2023-02-02T21:31:40.310Z,3.72
2023-02-02T21:34:11.032Z,3.77
2023-02-02T21:36:49.015Z,3.80
2023-02-02T21:39:25.184Z,3.62
2023-02-02T21:42:27.349Z,3.84
2023-02-02T21:45:32.988Z,3.64
2023-02-02T21:48:14.720Z,3.93
2023-02-02T21:50:44.630Z,3.82
2023-02-02T21:53:26.955Z,3.75
2023-02-02T21:56:02.088Z,3.80
2023-02-02T21:58:44.104Z,3.64
2023-02-02T22:01:36.871Z,3.74
2023-02-02T22:04:28.132Z,4.01
2023-02-02T22:07:00.411Z,3.99
2023-02-02T22:09:41.862Z,3.99
2023-02-02T22:12:31.467Z,3.87
2023-02-02T22:15:11.724Z,4.14
2023-02-02T22:17:51.099Z,3.84
2023-02-02T22:20:31.173Z,4.18
2023-02-02T22:23:07.633Z,4.04
2023-02-02T22:25:40.512Z,3.85
2023-02-02T22:28:22.165Z,4.01
2023-02-02T22:30:52.389Z,3.87
2023-02-02T22:33:26.974Z,3.81
2023-02-02T22:35:59.158Z,3.84
2023-02-02T22:38:38.883Z,3.86
2023-02-02T22:41:25.132Z,4.02
2023-02-02T22:43:56.621Z,3.98
2023-02-02T23:02:00.188Z,3.88
2023-02-02T23:04:29.218Z,3.91
2023-02-02T23:07:01.439Z,3.88
2023-02-02T23:09:39.136Z,3.88
2023-02-02T23:15:11.980Z,3.84
2023-02-02T23:17:46.174Z,3.78
2023-02-02T23:38:19.906Z,3.80
2023-02-02T23:40:51.362Z,3.77
2023-02-02T23:43:20.846Z,3.83
2023-02-02T23:45:52.352Z,3.79
2023-02-02T23:48:30.822Z,3.75
2023-02-02T23:51:01.305Z,3.72
2023-02-02T23:56:36.330Z,3.94
2023-02-02T23:59:07.684Z,3.87
